Time;durP1;ratioP1;P1;durP2;ratioP2;P2;SDS_P1;SDS_P2;PMS_P1;PMS_P2;Temp;Humidity;BMP_temperature;BMP_pressure;BME280_temperature;BME280_humidity;BME280_pressure;Samples;Min_cycle;Max_cycle;Signal;HPM_P1;HPM_P2
2023/03/05 07:23:45;;;;;;;;;22.75;18.75;;;;;8.46;62.03;101644.78;4914541;23;47167;-71
2023/03/05 07:26:20;;;;;;;;;14.50;14.25;;;;;7.99;62.67;101583.06;4893834;29;46458;-74
2023/03/05 07:28:54;;;;;;;;;16.75;14.00;;;;;8.12;62.25;101608.69;4883843;29;45377;-74
2023/03/05 07:31:25;;;;;;;;;16.50;14.50;;;;;7.83;62.43;101571.66;4894916;29;45492;-73
2023/03/05 07:34:06;;;;;;;;;13.50;11.75;;;;;7.87;62.71;101585.81;4878784;29;45884;-73
2023/03/05 07:36:50;;;;;;;;;18.75;15.50;;;;;8.08;62.85;101619.34;4892028;29;45409;-74
2023/03/05 07:39:17;;;;;;;;;17.75;15.25;;;;;8.02;62.77;101608.75;4898868;29;45684;-72
2023/03/05 07:41:55;;;;;;;;;;;;;;;;;;;;;
2023/03/05 07:44:53;;;;;;;;;;;;;;;;;;;;;
2023/03/05 07:50:56;;;;;;;;;15.75;14.00;;;;;8.18;62.49;101636.09;4892775;29;45419;-71
2023/03/05 07:53:23;;;;;;;;;20.25;18.00;;;;;7.98;62.87;101594.59;4878873;29;45515;-72
2023/03/05 07:56:27;;;;;;;;;;;;;;;;;;;;;
2023/03/05 07:59:18;;;;;;;;;;;;;;;;;;;;;
2023/03/05 08:02:13;;;;;;;;;22.00;19.75;;;;;8.39;63.09;101648.38;4899553;28;72925;-71
2023/03/05 08:04:59;;;;;;;;;;;;;;;;;;;;;
2023/03/05 08:11:04;;;;;;;;;;;;;;;;;;;;;
2023/03/05 08:14:14;;;;;;;;;23.50;19.00;;;;;8.40;62.84;101632.34;4902470;29;71350;-72
2023/03/05 08:24:16;;;;;;;;;;;;;;;;;;;;;
2023/03/05 08:27:14;;;;;;;;;27.25;20.50;;;;;8.46;62.80;101624.34;4909530;28;71980;-71
2023/03/05 08:29:39;;;;;;;;;25.25;23.25;;;;;8.31;62.58;101600.53;4921196;28;45446;-72
2023/03/05 08:32:05;;;;;;;;;23.75;22.00;;;;;8.44;62.89;101625.28;4900421;28;45547;-71
2023/03/05 08:34:47;;;;;;;;;20.50;18.75;;;;;8.03;63.33;101560.88;4898764;28;47136;-71
2023/03/05 08:37:22;;;;;;;;;24.00;20.75;;;;;8.38;63.13;101598.69;4895633;28;45650;-71
2023/03/05 08:39:57;;;;;;;;;;;;;;;;;;;;;
2023/03/05 08:43:06;;;;;;;;;;;;;;;;;;;;;
2023/03/05 08:45:39;;;;;;;;;20.50;18.75;;;;;8.15;62.63;101576.75;4915921;28;74453;-72
2023/03/05 08:48:15;;;;;;;;;;;;;;;;;;;;;
2023/03/05 08:50:53;;;;;;;;;;;;;;;;;;;;;
2023/03/05 08:53:21;;;;;;;;;20.75;20.75;;;;;8.42;62.80;101592.44;4904253;28;71765;-71
2023/03/05 08:56:35;;;;;;;;;;;;;;;;;;;;;
2023/03/05 08:59:02;;;;;;;;;20.75;19.00;;;;;8.67;62.60;101623.28;4912414;28;71258;-74
2023/03/05 09:01:29;;;;;;;;;20.75;18.75;;;;;8.57;62.28;101602.06;4918888;28;45410;-72
2023/03/05 09:03:55;;;;;;;;;14.50;12.00;;;;;8.48;62.25;101579.09;4914053;28;45395;-70
2023/03/05 09:06:20;;;;;;;;;24.25;20.00;;;;;8.58;61.86;101582.56;4901894;28;46010;-71
2023/03/05 09:08:46;;;;;;;;;24.00;20.25;;;;;8.65;62.01;101584.25;4914481;28;45336;-71
2023/03/05 09:11:22;;;;;;;;;21.00;18.75;;;;;8.47;62.19;101554.28;4907853;28;45304;-72
2023/03/05 09:13:52;;;;;;;;;21.00;19.00;;;;;8.66;61.43;101581.56;4903001;28;45546;-72
2023/03/05 09:16:31;;;;;;;;;;;;;;;;;;;;;
2023/03/05 09:18:58;;;;;;;;;20.25;18.00;;;;;8.63;61.78;101567.41;4911301;28;73164;-72
2023/03/05 09:21:33;;;;;;;;;15.50;15.50;;;;;8.66;61.00;101572.72;4910313;28;45442;-72
2023/03/05 09:37:52;;;;;;;;;14.50;13.00;;;;;8.46;61.44;101575.59;4761408;29;46338;-74
2023/03/05 09:40:19;;;;;;;;;17.25;15.25;;;;;8.32;61.58;101549.09;4820231;29;46130;-73
2023/03/05 09:42:56;;;;;;;;;18.75;17.00;;;;;8.61;61.57;101595.84;4875159;29;45611;-73
2023/03/05 09:45:32;;;;;;;;;23.50;21.75;;;;;8.51;61.67;101573.75;4900329;29;45500;-73
2023/03/05 09:48:11;;;;;;;;;19.75;19.00;;;;;8.50;61.43;101564.91;4895584;28;45543;-76
2023/03/05 09:51:51;;;;;;;;;;;;;;;;;;;;;
2023/03/05 09:54:15;;;;;;;;;19.25;15.50;;;;;8.36;60.60;101513.56;4888093;29;45292;-77
2023/03/05 09:56:51;;;;;;;;;19.50;16.25;;;;;8.75;60.65;101577.91;4871224;29;45511;-70
2023/03/05 09:59:34;;;;;;;;;12.00;8.75;;;;;8.57;60.56;101541.78;4870475;29;45543;-70
2023/03/05 10:02:04;;;;;;;;;16.75;16.75;;;;;8.53;60.92;101543.56;4866547;29;47245;-70
2023/03/05 10:04:42;;;;;;;;;23.25;19.00;;;;;8.70;60.80;101562.03;4873254;29;45691;-70
2023/03/05 10:07:37;;;;;;;;;22.25;19.25;;;;;8.37;60.84;101503.81;4876517;29;45659;-69
2023/03/05 10:10:23;;;;;;;;;18.50;15.75;;;;;8.48;60.72;101509.94;4879582;29;45555;-70
2023/03/05 10:12:52;;;;;;;;;13.25;12.25;;;;;8.42;60.27;101494.91;4865857;29;47570;-70
2023/03/05 10:15:25;;;;;;;;;20.25;16.00;;;;;8.78;60.67;101545.94;4883507;29;45610;-70
2023/03/05 10:18:09;;;;;;;;;17.25;14.50;;;;;8.83;60.64;101540.56;4883583;29;45349;-70
2023/03/05 10:20:52;;;;;;;;;18.25;18.25;;;;;8.56;60.47;101486.78;4887641;29;45449;-70
2023/03/05 10:23:39;;;;;;;;;20.00;14.00;;;;;8.76;60.58;101520.25;4883232;29;46267;-70
2023/03/05 10:26:13;;;;;;;;;18.75;15.25;;;;;8.92;60.25;101539.56;4882351;29;45460;-70
2023/03/05 10:28:47;;;;;;;;;15.25;11.75;;;;;8.95;59.89;101537.75;4888739;28;45455;-70
2023/03/05 10:31:40;;;;;;;;;15.00;15.00;;;;;9.00;60.32;101529.69;4883090;29;45583;-70
2023/03/05 10:34:47;;;;;;;;;13.25;13.25;;;;;8.98;59.90;101519.06;4888624;28;47261;-70
2023/03/05 10:37:41;;;;;;;;;14.75;13.00;;;;;9.09;59.69;101527.78;4865657;29;45774;-70
2023/03/05 10:40:25;;;;;;;;;16.50;13.50;;;;;9.12;59.40;101518.91;4883422;29;45347;-70
2023/03/05 10:43:17;;;;;;;;;13.50;13.50;;;;;9.12;59.48;101518.00;4882312;29;45479;-70
2023/03/05 10:45:48;;;;;;;;;10.50;9.00;;;;;8.87;59.25;101483.69;4865612;29;47055;-70
2023/03/05 10:48:38;;;;;;;;;12.00;12.00;;;;;9.14;59.33;101516.19;4883085;29;45344;-70
2023/03/05 10:51:14;;;;;;;;;20.00;17.50;;;;;8.90;59.15;101495.22;4878592;29;45486;-70
2023/03/05 10:54:01;;;;;;;;;19.50;18.25;;;;;9.15;59.26;101516.16;4866664;29;45591;-70
2023/03/05 10:56:28;;;;;;;;;16.25;14.50;;;;;8.86;59.12;101484.63;4891770;29;46381;-70
2023/03/05 10:58:54;;;;;;;;;15.25;12.50;;;;;8.91;59.09;101490.75;4879417;29;45333;-70
2023/03/05 11:01:24;;;;;;;;;16.00;15.50;;;;;8.94;59.14;101487.16;4892054;29;45498;-70
2023/03/05 11:04:38;;;;;;;;;12.75;11.25;;;;;9.16;58.81;101512.63;4872420;29;45402;-70
2023/03/05 11:07:15;;;;;;;;;13.00;12.25;;;;;9.16;58.58;101504.63;4890306;29;45422;-70
2023/03/05 11:09:42;;;;;;;;;13.00;13.00;;;;;8.93;58.43;101462.31;4883032;29;45497;-70
2023/03/05 11:12:17;;;;;;;;;11.50;11.50;;;;;8.98;58.44;101467.59;4882860;29;45534;-70
2023/03/05 11:15:00;;;;;;;;;11.50;9.00;;;;;9.19;58.41;101493.06;4882770;29;45393;-70
2023/03/05 11:17:31;;;;;;;;;9.00;8.75;;;;;9.29;58.02;101500.00;4882966;29;47229;-70
2023/03/05 11:20:25;;;;;;;;;10.50;9.00;;;;;9.12;57.48;101470.06;4867074;29;46214;-70
2023/03/05 11:23:08;;;;;;;;;9.00;8.25;;;;;9.27;57.71;101494.69;4887559;29;45265;-70
2023/03/05 11:25:49;;;;;;;;;13.25;13.00;;;;;9.06;57.52;101455.06;4882793;29;45450;-70
2023/03/05 11:28:22;;;;;;;;;10.75;9.00;;;;;8.93;57.81;101432.16;4882298;29;46067;-70
2023/03/05 11:31:04;;;;;;;;;8.50;7.00;;;;;9.09;57.34;101463.00;4882802;29;45665;-70
2023/03/05 11:33:30;;;;;;;;;9.00;9.00;;;;;9.36;57.35;101496.34;4895974;28;45334;-70
2023/03/05 11:36:22;;;;;;;;;9.50;9.50;;;;;9.04;57.05;101439.09;4907221;28;45739;-70
2023/03/05 11:38:53;;;;;;;;;8.00;8.00;;;;;9.23;57.26;101468.13;4884839;29;45423;-70
2023/03/05 11:41:27;;;;;;;;;12.50;9.00;;;;;8.97;56.60;101417.91;4868581;29;45652;-70
2023/03/05 11:43:53;;;;;;;;;7.75;7.50;;;;;9.39;56.83;101490.09;4892553;29;45422;-70
2023/03/05 11:46:20;;;;;;;;;9.50;8.00;;;;;9.33;56.73;101480.38;4874799;29;45631;-70
2023/03/05 11:48:46;;;;;;;;;10.00;9.50;;;;;9.33;56.79;101463.53;4892533;29;46560;-70
2023/03/05 11:51:30;;;;;;;;;12.75;9.00;;;;;9.33;56.75;101463.53;4868684;29;45425;-70
2023/03/05 11:54:02;;;;;;;;;9.25;7.50;;;;;9.12;56.38;101425.69;4887925;29;45310;-70
2023/03/05 11:56:42;;;;;;;;;12.00;11.00;;;;;9.40;56.28;101454.53;4877796;29;45395;-70
2023/03/05 11:59:28;;;;;;;;;10.75;10.75;;;;;9.39;56.17;101455.44;4901563;28;45723;-71
2023/03/05 12:01:56;;;;;;;;;15.25;12.50;;;;;9.17;56.36;101407.84;4890451;29;45742;-70
2023/03/05 12:04:23;;;;;;;;;12.75;8.25;;;;;9.27;56.21;101419.19;4893075;29;45353;-70
2023/03/05 12:07:01;;;;;;;;;8.75;8.75;;;;;9.51;55.76;101452.56;4885263;29;45263;-70
2023/03/05 12:09:41;;;;;;;;;11.50;10.50;;;;;9.37;56.06;101417.25;4868487;29;47600;-70
2023/03/05 12:12:22;;;;;;;;;9.75;9.75;;;;;9.48;55.82;101433.97;4885083;29;45915;-71
2023/03/05 12:14:57;;;;;;;;;8.50;7.50;;;;;9.56;55.73;101440.03;4868450;29;45392;-70
2023/03/05 12:17:43;;;;;;;;;12.50;8.00;;;;;9.59;55.43;101433.81;4868268;29;45537;-70
2023/03/05 12:20:32;;;;;;;;;8.75;8.75;;;;;9.59;55.46;101428.47;4871513;29;48272;-70
2023/03/05 12:22:57;;;;;;;;;10.50;9.75;;;;;9.26;55.76;101370.38;4888647;29;45352;-70
2023/03/05 12:25:43;;;;;;;;;12.25;10.00;;;;;9.56;55.97;101412.53;4885260;29;45488;-70
2023/03/05 12:28:36;;;;;;;;;10.00;9.00;;;;;9.43;55.61;101388.72;4884770;29;45363;-71
2023/03/05 12:31:26;;;;;;;;;9.00;9.00;;;;;9.58;55.40;101403.56;4884853;29;46413;-70
2023/03/05 12:33:52;;;;;;;;;8.75;7.25;;;;;9.38;55.10;101381.72;4887014;28;45491;-70
2023/03/05 12:36:20;;;;;;;;;9.75;9.50;;;;;9.51;55.63;101399.28;4887417;29;45488;-70
2023/03/05 12:38:52;;;;;;;;;11.75;11.75;;;;;9.51;55.41;101398.41;4868144;29;45430;-70
2023/03/05 12:41:21;;;;;;;;;8.50;8.25;;;;;9.52;54.86;101392.16;4884566;29;46574;-70
2023/03/05 12:44:09;;;;;;;;;9.00;9.00;;;;;9.50;55.46;101386.84;4890618;29;45599;-70
2023/03/05 12:46:47;;;;;;;;;11.50;9.00;;;;;9.28;55.52;101346.38;4884890;29;45370;-70
2023/03/05 12:49:19;;;;;;;;;13.75;8.75;;;;;9.49;55.51;101374.44;4883721;29;45531;-70
2023/03/05 12:51:50;;;;;;;;;10.25;9.50;;;;;9.32;54.83;101341.88;4867752;29;47552;-70
2023/03/05 12:54:38;;;;;;;;;10.75;9.00;;;;;9.48;55.31;101355.81;4884478;29;45871;-70
2023/03/05 12:57:26;;;;;;;;;10.00;9.50;;;;;9.36;55.01;101322.28;4867364;29;45371;-70
2023/03/05 13:00:09;;;;;;;;;11.50;11.25;;;;;9.37;55.08;101314.25;4906558;28;45552;-70
2023/03/05 13:02:41;;;;;;;;;10.00;10.00;;;;;9.59;54.88;101340.50;4874015;29;47116;-70
2023/03/05 13:05:20;;;;;;;;;13.75;10.75;;;;;9.20;54.87;101274.56;4889902;29;45349;-70
2023/03/05 13:07:46;;;;;;;;;10.00;10.00;;;;;9.45;55.36;101317.66;4884388;29;45386;-70
2023/03/05 13:10:24;;;;;;;;;9.00;5.50;;;;;9.26;55.00;101292.25;4884417;29;45421;-70
2023/03/05 13:12:54;;;;;;;;;11.00;8.75;;;;;9.56;55.36;101324.56;4884147;29;45628;-70
2023/03/05 13:15:22;;;;;;;;;9.00;7.75;;;;;9.32;55.05;101284.16;4867379;29;45343;-70
2023/03/05 13:17:54;;;;;;;;;10.25;9.00;;;;;9.52;55.10;101312.19;4867535;29;45465;-70
2023/03/05 13:20:27;;;;;;;;;10.50;9.00;;;;;9.58;54.81;101318.28;4889712;29;45363;-70
2023/03/05 13:23:27;;;;;;;;;8.00;8.00;;;;;9.57;54.52;101312.97;4872652;29;46906;-70
2023/03/05 13:26:07;;;;;;;;;9.25;8.00;;;;;9.57;54.97;101311.22;4870165;29;45441;-70
2023/03/05 13:28:33;;;;;;;;;13.25;10.75;;;;;9.19;54.91;101238.19;4870757;28;45400;-70
2023/03/05 13:31:01;;;;;;;;;13.50;10.75;;;;;9.27;54.39;101246.94;4890308;29;45559;-70
2023/03/05 13:33:33;;;;;;;;;13.00;10.50;;;;;9.52;54.76;101288.19;4878989;28;48048;-70
2023/03/05 13:35:59;;;;;;;;;12.00;10.00;;;;;9.39;54.98;101252.94;4908696;28;45264;-70
2023/03/05 13:38:44;;;;;;;;;9.00;9.00;;;;;9.18;54.38;101225.78;4903254;29;45314;-70
2023/03/05 13:41:09;;;;;;;;;8.75;8.75;;;;;9.61;54.09;101285.38;4886682;29;45454;-70
2023/03/05 13:43:56;;;;;;;;;7.50;7.50;;;;;9.36;53.96;101229.88;4888396;29;45749;-70
2023/03/05 13:46:37;;;;;;;;;7.00;4.50;;;;;9.31;53.84;101221.09;4890045;29;45535;-70
2023/03/05 13:49:24;;;;;;;;;8.50;8.50;;;;;9.34;53.72;101231.72;4887323;29;45480;-71
2023/03/05 13:51:58;;;;;;;;;9.00;7.00;;;;;9.44;54.09;101249.25;4884054;29;45387;-70
2023/03/05 13:54:26;;;;;;;;;9.75;7.00;;;;;9.17;53.93;101207.16;4883674;29;45499;-71
2023/03/05 13:56:59;;;;;;;;;7.25;7.00;;;;;9.27;53.42;101220.28;4866332;29;45732;-70
2023/03/05 13:59:33;;;;;;;;;7.25;5.50;;;;;9.39;53.49;101239.63;4885328;29;45394;-70
2023/03/05 14:02:04;;;;;;;;;8.25;8.00;;;;;9.22;53.95;101208.84;4888282;29;45401;-70
2023/03/05 14:04:41;;;;;;;;;8.00;5.25;;;;;9.33;53.71;101211.28;4890126;29;46642;-70
2023/03/05 14:07:23;;;;;;;;;12.00;8.33;;;;;9.35;53.69;101214.78;4866441;29;46043;-70
2023/03/05 14:09:51;;;;;;;;;8.25;8.00;;;;;9.25;53.69;101195.47;4883720;29;45438;-70
2023/03/05 14:12:24;;;;;;;;;8.75;8.75;;;;;9.44;53.89;101232.41;4883332;29;45291;-70
2023/03/05 14:14:50;;;;;;;;;10.75;9.75;;;;;9.39;54.04;101228.97;4883499;29;46204;-70
2023/03/05 14:17:23;;;;;;;;;6.75;6.75;;;;;9.37;53.86;101214.75;4883658;29;45492;-70
2023/03/05 14:19:48;;;;;;;;;7.25;7.25;;;;;9.26;53.62;101194.53;4868570;29;45500;-71
2023/03/05 14:22:32;;;;;;;;;9.50;8.50;;;;;9.34;53.81;101202.41;4893790;29;45611;-70
2023/03/05 14:25:00;;;;;;;;;9.50;7.00;;;;;9.27;53.95;101179.44;4866178;29;47208;-71
2023/03/05 14:27:30;;;;;;;;;7.25;6.50;;;;;9.40;53.74;101199.59;4866061;29;45403;-71
2023/03/05 14:29:56;;;;;;;;;8.50;8.50;;;;;9.35;53.58;101176.63;4903236;28;45343;-70
2023/03/05 14:32:31;;;;;;;;;8.00;7.75;;;;;9.30;53.94;101174.03;4890702;29;45466;-70
2023/03/05 14:35:01;;;;;;;;;9.75;8.00;;;;;9.44;53.45;101195.97;4895684;29;46105;-70
2023/03/05 14:37:40;;;;;;;;;10.00;9.00;;;;;9.34;53.81;101162.44;4883415;29;45374;-70
2023/03/05 14:40:19;;;;;;;;;8.75;8.25;;;;;9.40;53.85;101166.75;4883530;29;45644;-71
2023/03/05 14:43:01;;;;;;;;;8.25;8.25;;;;;9.51;53.23;101170.06;4883019;29;45441;-70
2023/03/05 14:45:35;;;;;;;;;8.00;8.00;;;;;9.61;53.14;101179.63;4883268;29;45473;-71
2023/03/05 14:48:13;;;;;;;;;10.00;10.00;;;;;9.36;53.10;101133.09;4866109;29;45775;-71
2023/03/05 14:50:45;;;;;;;;;11.00;8.00;;;;;9.27;53.21;101113.72;4883313;29;45460;-71
2023/03/05 14:53:19;;;;;;;;;8.00;7.75;;;;;9.57;53.19;101159.28;4883237;29;45358;-70
2023/03/05 14:55:49;;;;;;;;;10.25;9.00;;;;;9.31;53.48;101116.34;4866054;29;46370;-70
2023/03/05 14:58:20;;;;;;;;;12.50;10.50;;;;;9.34;53.05;101114.47;4889812;28;45376;-70
2023/03/05 15:00:50;;;;;;;;;9.50;9.25;;;;;9.42;53.48;101122.28;4896433;28;45563;-70
2023/03/05 15:03:16;;;;;;;;;13.00;13.00;;;;;9.37;53.13;101108.19;4872691;29;46243;-71
2023/03/05 15:05:44;;;;;;;;;16.25;15.25;;;;;9.47;53.17;101125.72;4883058;29;45380;-70
2023/03/05 15:08:15;;;;;;;;;13.75;11.25;;;;;9.33;53.20;101085.19;4865632;29;45490;-70
2023/03/05 15:10:43;;;;;;;;;15.00;12.25;;;;;9.34;53.12;101084.28;4866221;29;45380;-70
2023/03/05 15:13:09;;;;;;;;;13.75;13.50;;;;;9.62;52.96;101124.53;4866986;29;45527;-70
2023/03/05 15:15:34;;;;;;;;;11.25;11.00;;;;;9.45;52.70;101088.50;4869079;29;47193;-70
2023/03/05 15:18:02;;;;;;;;;13.50;11.25;;;;;9.55;52.72;101101.59;4869002;29;45331;-71
2023/03/05 15:20:29;;;;;;;;;11.75;10.50;;;;;9.31;53.20;101047.94;4874321;29;45495;-70
2023/03/05 15:22:55;;;;;;;;;9.50;8.75;;;;;9.48;52.62;101076.88;4890050;29;45483;-70
2023/03/05 15:25:22;;;;;;;;;15.00;9.00;;;;;9.52;52.52;101086.56;4872809;29;47924;-71
2023/03/05 15:27:49;;;;;;;;;10.50;10.00;;;;;9.38;52.46;101064.66;4885590;29;45283;-70
2023/03/05 15:30:31;;;;;;;;;10.75;10.25;;;;;9.63;52.01;101100.50;4907293;28;45513;-70
2023/03/05 15:33:00;;;;;;;;;10.50;10.50;;;;;9.42;52.31;101069.91;4890310;28;45430;-70
2023/03/05 15:35:25;;;;;;;;;10.25;9.00;;;;;9.17;52.45;101028.72;4920283;28;47219;-71
2023/03/05 15:37:51;;;;;;;;;2.50;2.25;;;;;9.25;52.41;101042.72;4884450;29;45382;-70
2023/03/05 15:40:17;;;;;;;;;11.00;9.00;;;;;9.60;52.54;101100.56;4885986;29;45465;-70
2023/03/05 15:42:42;;;;;;;;;13.00;10.50;;;;;9.54;52.10;101090.06;4885399;29;45385;-70
2023/03/05 15:45:08;;;;;;;;;11.00;9.50;;;;;9.30;52.80;101047.97;4892599;29;46410;-70
2023/03/05 15:47:33;;;;;;;;;10.00;7.75;;;;;9.37;52.12;101044.25;4897965;29;45366;-70
2023/03/05 15:49:59;;;;;;;;;10.00;9.00;;;;;9.35;52.30;101049.59;4885940;29;45619;-70
2023/03/05 15:52:24;;;;;;;;;9.00;8.00;;;;;9.56;52.25;101076.72;4900082;28;45534;-70
2023/03/05 15:54:50;;;;;;;;;10.25;9.50;;;;;9.44;52.45;101060.06;4885557;29;46499;-71
2023/03/05 15:57:18;;;;;;;;;13.00;9.00;;;;;9.61;52.02;101081.00;4885192;29;45437;-71
2023/03/05 15:59:45;;;;;;;;;10.25;8.00;;;;;9.65;51.96;101095.13;4904987;28;45371;-70
2023/03/05 16:02:10;;;;;;;;;13.75;9.25;;;;;9.41;51.87;101059.28;4887858;29;45393;-70
2023/03/05 16:04:36;;;;;;;;;12.50;10.00;;;;;9.42;51.85;101053.00;4892371;29;45270;-70
2023/03/05 16:07:02;;;;;;;;;10.25;8.00;;;;;9.39;52.14;101045.97;4885163;29;45672;-70
2023/03/05 16:09:33;;;;;;;;;8.00;5.25;;;;;9.34;51.61;101034.56;4883766;29;45687;-70
2023/03/05 16:12:00;;;;;;;;;9.75;7.00;;;;;9.52;51.96;101067.91;4883228;29;45358;-71
2023/03/05 16:14:27;;;;;;;;;9.00;9.00;;;;;9.61;51.69;101074.81;4883973;29;47497;-71
2023/03/05 16:16:55;;;;;;;;;8.75;7.75;;;;;9.57;51.67;101055.34;4883849;29;45476;-70
2023/03/05 16:19:23;;;;;;;;;7.50;5.00;;;;;9.48;51.65;101036.91;4883502;29;45442;-71
2023/03/05 16:21:48;;;;;;;;;8.75;7.25;;;;;9.52;51.00;101045.69;4893101;29;45916;-70
2023/03/05 16:24:14;;;;;;;;;10.50;9.75;;;;;9.29;51.57;101012.47;4883852;29;45592;-71
2023/03/05 16:26:41;;;;;;;;;9.50;6.25;;;;;9.54;51.01;101054.50;4869178;29;45520;-71
2023/03/05 16:29:07;;;;;;;;;7.25;5.25;;;;;9.34;51.68;101026.56;4897758;28;45471;-70
2023/03/05 16:31:34;;;;;;;;;7.00;7.00;;;;;9.27;51.20;101017.84;4898158;28;45555;-70
2023/03/05 16:34:02;;;;;;;;;8.75;8.75;;;;;9.26;51.10;101004.53;4905704;28;46346;-71
2023/03/05 16:36:29;;;;;;;;;12.50;9.25;;;;;9.37;51.74;101014.94;4888142;28;45424;-71
2023/03/05 16:39:00;;;;;;;;;11.75;9.75;;;;;9.32;51.08;101007.09;4885290;29;45411;-70
2023/03/05 16:41:28;;;;;;;;;11.75;9.00;;;;;9.37;51.07;101009.63;4884541;29;45414;-71
2023/03/05 16:43:55;;;;;;;;;12.50;10.50;;;;;9.44;51.31;101003.25;4891646;29;46597;-70
2023/03/05 16:46:22;;;;;;;;;14.75;14.00;;;;;9.40;50.98;100998.88;4874053;29;45378;-70
2023/03/05 16:48:48;;;;;;;;;13.00;11.25;;;;;9.62;51.46;101032.13;4903920;29;46790;-71
2023/03/05 16:51:13;;;;;;;;;9.50;8.00;;;;;9.53;51.30;101013.69;4880759;29;46206;-70
2023/03/05 16:53:39;;;;;;;;;9.00;8.25;;;;;9.45;51.22;100991.66;4867237;29;47769;-70
2023/03/05 16:56:07;;;;;;;;;8.25;6.00;;;;;9.40;51.17;100981.09;4884601;29;45380;-71
2023/03/05 16:58:34;;;;;;;;;14.50;13.50;;;;;9.43;50.96;100977.50;4896526;28;45438;-70
2023/03/05 17:01:00;;;;;;;;;17.75;15.50;;;;;9.52;51.15;100984.41;4889237;29;45549;-71
2023/03/05 17:03:27;;;;;;;;;16.00;14.25;;;;;9.60;50.86;100998.41;4881299;29;47208;-70
2023/03/05 17:05:53;;;;;;;;;9.00;8.00;;;;;9.38;51.21;100958.09;4874495;29;45394;-70
2023/03/05 17:08:19;;;;;;;;;10.50;8.00;;;;;9.31;50.90;100949.38;4890188;29;45440;-70
2023/03/05 17:10:44;;;;;;;;;10.50;9.50;;;;;9.37;50.74;100956.31;4873945;29;45468;-70
2023/03/05 17:13:10;;;;;;;;;14.50;13.00;;;;;9.50;51.29;100971.09;4872926;29;48063;-70
2023/03/05 17:15:35;;;;;;;;;11.50;10.00;;;;;9.52;51.31;100971.97;4884627;29;45372;-70
2023/03/05 17:18:01;;;;;;;;;12.50;11.75;;;;;9.26;50.69;100928.16;4884416;29;45431;-70
2023/03/05 17:20:27;;;;;;;;;14.75;14.00;;;;;9.25;51.11;100925.53;4873898;29;45467;-71
2023/03/05 17:22:52;;;;;;;;;9.25;9.00;;;;;9.36;51.02;100943.94;4872438;29;46819;-70
2023/03/05 17:25:18;;;;;;;;;6.25;4.75;;;;;9.40;50.95;100951.78;4870907;29;45800;-70
2023/03/05 17:27:44;;;;;;;;;11.25;10.75;;;;;9.23;51.07;100922.91;4883991;29;45301;-70
2023/03/05 17:30:11;;;;;;;;;12.25;10.75;;;;;9.45;51.37;100951.69;4904484;28;45937;-70
2023/03/05 17:32:40;;;;;;;;;10.75;10.00;;;;;9.21;51.58;100913.22;4890313;28;46341;-71
2023/03/05 17:35:06;;;;;;;;;11.50;11.50;;;;;9.51;51.34;100966.69;4884014;29;45379;-70
2023/03/05 17:37:31;;;;;;;;;10.00;9.75;;;;;9.57;51.39;100983.38;4882825;29;45458;-71
2023/03/05 17:39:59;;;;;;;;;14.00;10.75;;;;;9.41;51.38;100950.03;4882820;29;45662;-70
2023/03/05 17:42:25;;;;;;;;;2.25;2.00;;;;;9.56;50.99;100973.63;4882457;29;47418;-70
2023/03/05 17:44:50;;;;;;;;;10.25;10.25;;;;;9.63;51.36;100985.03;4891532;29;45447;-70
2023/03/05 17:47:16;;;;;;;;;15.50;11.25;;;;;9.59;51.26;100986.03;4896759;29;45497;-71
2023/03/05 17:49:41;;;;;;;;;12.00;11.25;;;;;9.33;51.29;100944.88;4882678;29;45604;-70
2023/03/05 17:52:07;;;;;;;;;9.50;9.50;;;;;9.37;51.45;100943.91;4882395;29;47090;-70
2023/03/05 17:54:32;;;;;;;;;10.25;10.25;;;;;9.39;51.42;100946.53;4884031;29;45446;-70
2023/03/05 17:56:58;;;;;;;;;16.00;13.50;;;;;9.42;52.17;100941.09;4883591;29;45406;-70
2023/03/05 17:59:24;;;;;;;;;12.25;9.75;;;;;9.43;51.58;100948.19;4901945;28;45498;-70
2023/03/05 18:01:50;;;;;;;;;15.75;12.25;;;;;9.50;51.77;100951.59;4887880;29;48370;-71
2023/03/05 18:04:21;;;;;;;;;12.50;11.00;;;;;9.66;51.97;100970.75;4891401;29;45386;-71
2023/03/05 18:06:46;;;;;;;;;16.75;14.00;;;;;9.33;51.59;100922.69;4882344;29;45444;-70
2023/03/05 18:09:13;;;;;;;;;17.75;15.50;;;;;9.37;51.91;100922.59;4881903;29;45446;-70
2023/03/05 18:11:38;;;;;;;;;13.50;12.00;;;;;9.66;51.88;100970.75;4883470;29;45746;-70
2023/03/05 18:14:04;;;;;;;;;18.75;16.00;;;;;9.72;52.04;100982.13;4883597;29;45479;-70
2023/03/05 18:16:29;;;;;;;;;11.25;10.00;;;;;9.63;51.96;100953.03;4883584;29;45506;-70
2023/03/05 18:18:55;;;;;;;;;17.50;15.50;;;;;9.49;52.08;100937.41;4883643;29;45601;-70
2023/03/05 18:21:23;;;;;;;;;16.75;13.50;;;;;9.45;51.72;100919.72;4895388;29;46438;-70
2023/03/05 18:23:49;;;;;;;;;15.25;12.25;;;;;9.51;51.40;100932.91;4883572;29;45243;-71
2023/03/05 18:26:15;;;;;;;;;17.25;14.25;;;;;9.57;51.73;100937.19;4883344;29;45371;-70
2023/03/05 18:28:40;;;;;;;;;16.00;15.50;;;;;9.44;51.76;100910.84;4872031;28;45383;-70
2023/03/05 18:31:06;;;;;;;;;14.50;12.75;;;;;9.53;51.56;100928.41;4905108;28;45411;-70
2023/03/05 18:33:31;;;;;;;;;16.00;15.50;;;;;9.42;52.38;100910.03;4896971;28;45488;-70
2023/03/05 18:35:58;;;;;;;;;13.75;11.25;;;;;9.63;51.40;100942.38;4907527;28;45478;-70
2023/03/05 18:38:26;;;;;;;;;16.25;13.25;;;;;9.61;51.44;100937.06;4883335;29;45364;-70
2023/03/05 18:40:53;;;;;;;;;15.00;14.50;;;;;9.60;51.43;100926.44;4883020;29;45624;-70
2023/03/05 18:43:20;;;;;;;;;14.50;14.50;;;;;9.62;51.56;100929.94;4885626;29;45263;-71
2023/03/05 18:45:53;;;;;;;;;16.25;12.75;;;;;9.61;51.41;100933.56;4889504;29;45346;-70
2023/03/05 18:48:19;;;;;;;;;14.25;14.25;;;;;9.58;51.83;100915.84;4894587;29;45262;-71
2023/03/05 18:50:44;;;;;;;;;17.50;13.50;;;;;9.69;51.31;100938.66;4886453;29;45373;-70
2023/03/05 18:53:13;;;;;;;;;13.75;13.00;;;;;9.56;51.87;100912.34;4886586;29;45346;-70
2023/03/05 18:55:41;;;;;;;;;13.50;13.50;;;;;9.75;51.25;100944.72;4886668;29;45407;-70
2023/03/05 18:58:07;;;;;;;;;17.25;12.00;;;;;9.51;50.92;100898.25;4891326;28;46002;-70
2023/03/05 19:00:33;;;;;;;;;19.50;17.00;;;;;9.59;51.25;100916.72;4903503;28;46432;-70
2023/03/05 19:02:58;;;;;;;;;16.50;13.50;;;;;9.72;51.49;100938.59;4891056;29;45322;-71
2023/03/05 19:05:25;;;;;;;;;14.75;12.00;;;;;9.45;51.02;100890.41;4888706;29;45464;-70
2023/03/05 19:07:51;;;;;;;;;16.25;14.50;;;;;9.52;51.49;100909.78;4886299;29;45390;-71
2023/03/05 19:10:17;;;;;;;;;15.50;15.00;;;;;9.49;51.45;100900.09;4886013;29;45540;-71
2023/03/05 19:13:04;;;;;;;;;12.00;10.00;;;;;9.51;51.07;100900.06;4886116;29;45729;-70
2023/03/05 19:15:30;;;;;;;;;17.75;15.50;;;;;9.70;51.12;100938.63;4869418;29;45473;-70
2023/03/05 19:17:56;;;;;;;;;15.75;14.25;;;;;9.50;50.92;100901.81;4886082;29;45457;-70
2023/03/05 19:20:24;;;;;;;;;19.25;15.75;;;;;9.33;51.08;100880.94;4873676;29;47977;-70
2023/03/05 19:22:49;;;;;;;;;14.25;12.00;;;;;9.73;51.51;100940.34;4874485;29;45380;-70
2023/03/05 19:25:16;;;;;;;;;17.75;16.50;;;;;9.44;51.07;100896.66;4885992;29;45313;-70
2023/03/05 19:27:41;;;;;;;;;19.75;16.00;;;;;9.63;51.22;100940.56;4885591;29;45569;-70
2023/03/05 19:30:08;;;;;;;;;19.50;16.00;;;;;9.51;51.14;100911.59;4906851;28;45423;-70
2023/03/05 19:32:41;;;;;;;;;16.75;14.75;;;;;9.34;51.20;100884.47;4874043;29;45667;-70
2023/03/05 19:35:07;;;;;;;;;19.75;17.00;;;;;9.18;51.56;100852.03;4886159;29;45437;-70
2023/03/05 19:37:33;;;;;;;;;19.00;16.25;;;;;9.41;51.50;100897.59;4885794;29;45454;-71
2023/03/05 19:39:58;;;;;;;;;16.00;15.00;;;;;9.24;51.78;100863.41;4885815;29;45547;-71
2023/03/05 19:42:23;;;;;;;;;20.75;19.00;;;;;9.36;51.21;100882.66;4868403;29;45483;-70
2023/03/05 19:44:49;;;;;;;;;16.25;16.00;;;;;9.36;51.40;100888.84;4893206;29;45555;-70
2023/03/05 19:47:14;;;;;;;;;21.75;18.50;;;;;9.53;51.41;100917.75;4898233;29;45523;-70
2023/03/05 19:49:40;;;;;;;;;21.75;18.25;;;;;9.63;51.50;100924.59;4885494;29;46447;-71
2023/03/05 19:52:06;;;;;;;;;18.25;18.25;;;;;9.52;50.96;100910.69;4868297;29;45770;-70
2023/03/05 19:54:32;;;;;;;;;18.00;15.25;;;;;9.49;51.78;100902.75;4885795;29;45333;-71
2023/03/05 19:56:58;;;;;;;;;16.50;16.00;;;;;9.57;51.34;100919.44;4885276;29;45374;-71
2023/03/05 19:59:24;;;;;;;;;15.25;14.25;;;;;9.45;52.11;100898.41;4903097;28;46591;-70